sensor_id;sensor_type;location;lat;lon;timestamp;temperature;humidity
15556;DHT22;7879;48.660;9.116;2022-10-16T00:01:14;14.00;99.90
15556;DHT22;7879;48.660;9.116;2022-10-16T00:03:42;14.00;99.90
15556;DHT22;7879;48.660;9.116;2022-10-16T00:06:10;14.00;99.90
15556;DHT22;7879;48.660;9.116;2022-10-16T00:08:37;13.90;99.90
15556;DHT22;7879;48.660;9.116;2022-10-16T00:11:10;13.90;99.90
15556;DHT22;7879;48.660;9.116;2022-10-16T00:13:39;13.90;99.90
15556;DHT22;7879;48.660;9.116;2022-10-16T00:16:06;13.90;99.90
15556;DHT22;7879;48.660;9.116;2022-10-16T00:18:33;13.80;99.90
15556;DHT22;7879;48.660;9.116;2022-10-16T00:21:09;13.80;99.90
15556;DHT22;7879;48.660;9.116;2022-10-16T00:23:36;13.80;99.90
15556;DHT22;7879;48.660;9.116;2022-10-16T00:26:06;13.80;99.90
15556;DHT22;7879;48.660;9.116;2022-10-16T00:28:33;13.80;99.90
15556;DHT22;7879;48.660;9.116;2022-10-16T00:31:07;13.70;99.90
15556;DHT22;7879;48.660;9.116;2022-10-16T00:33:34;13.70;99.90
15556;DHT22;7879;48.660;9.116;2022-10-16T00:36:02;13.70;99.90
15556;DHT22;7879;48.660;9.116;2022-10-16T00:38:29;13.60;99.90
15556;DHT22;7879;48.660;9.116;2022-10-16T00:40:57;13.60;99.90
15556;DHT22;7879;48.660;9.116;2022-10-16T00:43:45;13.60;99.90
15556;DHT22;7879;48.660;9.116;2022-10-16T00:49:11;13.60;99.90
15556;DHT22;7879;48.660;9.116;2022-10-16T00:51:46;13.50;99.90
15556;DHT22;7879;48.660;9.116;2022-10-16T00:54:26;13.50;99.90
15556;DHT22;7879;48.660;9.116;2022-10-16T00:56:55;13.50;99.90
15556;DHT22;7879;48.660;9.116;2022-10-16T01:01:57;13.50;99.90
15556;DHT22;7879;48.660;9.116;2022-10-16T01:04:29;13.40;99.90
15556;DHT22;7879;48.660;9.116;2022-10-16T01:09:37;13.40;99.90
15556;DHT22;7879;48.660;9.116;2022-10-16T01:12:15;13.50;99.90
15556;DHT22;7879;48.660;9.116;2022-10-16T01:15:03;13.40;99.90
15556;DHT22;7879;48.660;9.116;2022-10-16T01:17:37;13.40;99.90
15556;DHT22;7879;48.660;9.116;2022-10-16T01:23:29;13.30;99.90
15556;DHT22;7879;48.660;9.116;2022-10-16T01:26:11;13.30;99.90
15556;DHT22;7879;48.660;9.116;2022-10-16T01:29:07;13.40;99.90
15556;DHT22;7879;48.660;9.116;2022-10-16T01:31:38;13.30;99.90
15556;DHT22;7879;48.660;9.116;2022-10-16T01:34:10;13.30;99.90
15556;DHT22;7879;48.660;9.116;2022-10-16T01:36:49;13.30;99.90
15556;DHT22;7879;48.660;9.116;2022-10-16T01:39:20;13.30;99.90
15556;DHT22;7879;48.660;9.116;2022-10-16T01:42:13;13.30;99.90
15556;DHT22;7879;48.660;9.116;2022-10-16T01:44:42;13.20;99.90
15556;DHT22;7879;48.660;9.116;2022-10-16T01:47:10;13.20;99.90
15556;DHT22;7879;48.660;9.116;2022-10-16T01:49:41;13.20;99.90
15556;DHT22;7879;48.660;9.116;2022-10-16T01:52:13;13.20;99.90
15556;DHT22;7879;48.660;9.116;2022-10-16T01:54:43;13.20;99.90
15556;DHT22;7879;48.660;9.116;2022-10-16T01:57:12;13.20;99.90
15556;DHT22;7879;48.660;9.116;2022-10-16T01:59:53;13.20;99.90
15556;DHT22;7879;48.660;9.116;2022-10-16T02:02:22;13.20;99.90
15556;DHT22;7879;48.660;9.116;2022-10-16T02:04:53;13.20;99.90
15556;DHT22;7879;48.660;9.116;2022-10-16T02:07:22;13.30;99.90
15556;DHT22;7879;48.660;9.116;2022-10-16T02:09:48;13.30;99.90
15556;DHT22;7879;48.660;9.116;2022-10-16T02:12:26;13.30;99.90
15556;DHT22;7879;48.660;9.116;2022-10-16T02:14:54;13.20;99.90
15556;DHT22;7879;48.660;9.116;2022-10-16T02:17:22;13.30;99.90
15556;DHT22;7879;48.660;9.116;2022-10-16T02:19:50;13.20;99.90
15556;DHT22;7879;48.660;9.116;2022-10-16T02:22:26;13.30;99.90
15556;DHT22;7879;48.660;9.116;2022-10-16T02:24:58;13.30;99.90
15556;DHT22;7879;48.660;9.116;2022-10-16T02:30:29;13.30;99.90
15556;DHT22;7879;48.660;9.116;2022-10-16T02:32:58;13.20;99.90
15556;DHT22;7879;48.660;9.116;2022-10-16T02:35:27;13.30;99.90
15556;DHT22;7879;48.660;9.116;2022-10-16T02:37:55;13.20;99.90
15556;DHT22;7879;48.660;9.116;2022-10-16T02:40:23;13.20;99.90
15556;DHT22;7879;48.660;9.116;2022-10-16T02:42:52;13.20;99.90
15556;DHT22;7879;48.660;9.116;2022-10-16T02:45:19;13.20;99.90
15556;DHT22;7879;48.660;9.116;2022-10-16T02:47:46;13.20;99.90
15556;DHT22;7879;48.660;9.116;2022-10-16T02:50:13;13.20;99.90
15556;DHT22;7879;48.660;9.116;2022-10-16T02:52:40;13.20;99.90
15556;DHT22;7879;48.660;9.116;2022-10-16T02:55:07;13.20;99.90
15556;DHT22;7879;48.660;9.116;2022-10-16T02:57:33;13.20;99.90
15556;DHT22;7879;48.660;9.116;2022-10-16T03:00:03;13.20;99.90
15556;DHT22;7879;48.660;9.116;2022-10-16T03:02:30;13.20;99.90
15556;DHT22;7879;48.660;9.116;2022-10-16T03:04:56;13.20;99.90
15556;DHT22;7879;48.660;9.116;2022-10-16T03:07:23;13.20;99.90
15556;DHT22;7879;48.660;9.116;2022-10-16T03:09:50;13.10;99.90
15556;DHT22;7879;48.660;9.116;2022-10-16T03:12:17;13.10;99.90
15556;DHT22;7879;48.660;9.116;2022-10-16T03:14:43;13.10;99.90
15556;DHT22;7879;48.660;9.116;2022-10-16T03:17:10;13.10;99.90
15556;DHT22;7879;48.660;9.116;2022-10-16T03:19:37;13.10;99.90
15556;DHT22;7879;48.660;9.116;2022-10-16T03:22:03;13.10;99.90
15556;DHT22;7879;48.660;9.116;2022-10-16T03:24:30;13.10;99.90
15556;DHT22;7879;48.660;9.116;2022-10-16T03:26:57;13.10;99.90
15556;DHT22;7879;48.660;9.116;2022-10-16T03:29:24;13.10;99.90
15556;DHT22;7879;48.660;9.116;2022-10-16T03:31:52;13.10;99.90
15556;DHT22;7879;48.660;9.116;2022-10-16T03:34:18;13.10;99.90
15556;DHT22;7879;48.660;9.116;2022-10-16T03:36:45;13.10;99.90
15556;DHT22;7879;48.660;9.116;2022-10-16T03:39:12;13.10;99.90
15556;DHT22;7879;48.660;9.116;2022-10-16T03:41:38;13.00;99.90
15556;DHT22;7879;48.660;9.116;2022-10-16T03:44:05;13.00;99.90
15556;DHT22;7879;48.660;9.116;2022-10-16T03:46:32;13.00;99.90
15556;DHT22;7879;48.660;9.116;2022-10-16T03:48:58;13.00;99.90
15556;DHT22;7879;48.660;9.116;2022-10-16T03:51:25;13.00;99.90
15556;DHT22;7879;48.660;9.116;2022-10-16T03:53:52;13.00;99.90
15556;DHT22;7879;48.660;9.116;2022-10-16T03:56:18;12.90;99.90
15556;DHT22;7879;48.660;9.116;2022-10-16T03:58:45;13.00;99.90
15556;DHT22;7879;48.660;9.116;2022-10-16T04:01:12;13.00;99.90
15556;DHT22;7879;48.660;9.116;2022-10-16T04:03:38;12.90;99.90
15556;DHT22;7879;48.660;9.116;2022-10-16T04:06:05;13.00;99.90
15556;DHT22;7879;48.660;9.116;2022-10-16T04:08:32;12.90;99.90
15556;DHT22;7879;48.660;9.116;2022-10-16T04:11:01;12.90;99.90
15556;DHT22;7879;48.660;9.116;2022-10-16T04:13:28;12.90;99.90
15556;DHT22;7879;48.660;9.116;2022-10-16T04:15:54;12.90;99.90
15556;DHT22;7879;48.660;9.116;2022-10-16T04:18:21;12.90;99.90
15556;DHT22;7879;48.660;9.116;2022-10-16T04:20:48;12.90;99.90
15556;DHT22;7879;48.660;9.116;2022-10-16T04:23:14;12.90;99.90
15556;DHT22;7879;48.660;9.116;2022-10-16T04:25:41;12.90;99.90
15556;DHT22;7879;48.660;9.116;2022-10-16T04:28:08;12.80;99.90
15556;DHT22;7879;48.660;9.116;2022-10-16T04:30:34;12.80;99.90
15556;DHT22;7879;48.660;9.116;2022-10-16T04:33:01;12.80;99.90
15556;DHT22;7879;48.660;9.116;2022-10-16T04:35:28;12.80;99.90
15556;DHT22;7879;48.660;9.116;2022-10-16T04:37:57;12.80;99.90
15556;DHT22;7879;48.660;9.116;2022-10-16T04:40:24;12.80;99.90
15556;DHT22;7879;48.660;9.116;2022-10-16T04:42:50;12.90;99.90
15556;DHT22;7879;48.660;9.116;2022-10-16T04:45:17;12.80;99.90
15556;DHT22;7879;48.660;9.116;2022-10-16T04:47:44;12.80;99.90
15556;DHT22;7879;48.660;9.116;2022-10-16T04:50:10;12.80;99.90
15556;DHT22;7879;48.660;9.116;2022-10-16T04:52:37;12.80;99.90
15556;DHT22;7879;48.660;9.116;2022-10-16T04:55:04;12.80;99.90
15556;DHT22;7879;48.660;9.116;2022-10-16T04:57:31;12.80;99.90
15556;DHT22;7879;48.660;9.116;2022-10-16T04:59:59;12.80;99.90
15556;DHT22;7879;48.660;9.116;2022-10-16T05:02:26;12.80;99.90
15556;DHT22;7879;48.660;9.116;2022-10-16T05:04:53;12.80;99.90
15556;DHT22;7879;48.660;9.116;2022-10-16T05:07:20;12.80;99.90
15556;DHT22;7879;48.660;9.116;2022-10-16T05:09:46;12.80;99.90
15556;DHT22;7879;48.660;9.116;2022-10-16T05:12:13;12.80;99.90
15556;DHT22;7879;48.660;9.116;2022-10-16T05:14:41;12.80;99.90
15556;DHT22;7879;48.660;9.116;2022-10-16T05:17:07;12.80;99.90
15556;DHT22;7879;48.660;9.116;2022-10-16T05:19:34;12.70;99.90
15556;DHT22;7879;48.660;9.116;2022-10-16T05:22:01;12.70;99.90
15556;DHT22;7879;48.660;9.116;2022-10-16T05:24:28;12.70;99.90
15556;DHT22;7879;48.660;9.116;2022-10-16T05:26:54;12.70;99.90
15556;DHT22;7879;48.660;9.116;2022-10-16T05:29:21;12.70;99.90
15556;DHT22;7879;48.660;9.116;2022-10-16T05:31:54;12.70;99.90
15556;DHT22;7879;48.660;9.116;2022-10-16T05:34:21;12.70;99.90
15556;DHT22;7879;48.660;9.116;2022-10-16T05:36:47;12.70;99.90
15556;DHT22;7879;48.660;9.116;2022-10-16T05:39:15;12.70;99.90
15556;DHT22;7879;48.660;9.116;2022-10-16T05:41:42;12.60;99.90
15556;DHT22;7879;48.660;9.116;2022-10-16T05:44:10;12.70;99.90
15556;DHT22;7879;48.660;9.116;2022-10-16T05:46:37;12.60;99.90
15556;DHT22;7879;48.660;9.116;2022-10-16T05:49:03;12.60;99.90
15556;DHT22;7879;48.660;9.116;2022-10-16T05:51:30;12.70;99.90
15556;DHT22;7879;48.660;9.116;2022-10-16T05:53:57;12.60;99.90
15556;DHT22;7879;48.660;9.116;2022-10-16T05:56:23;12.50;99.90
15556;DHT22;7879;48.660;9.116;2022-10-16T05:58:50;12.50;99.90
15556;DHT22;7879;48.660;9.116;2022-10-16T06:01:18;12.50;99.90
15556;DHT22;7879;48.660;9.116;2022-10-16T06:03:45;12.50;99.90
15556;DHT22;7879;48.660;9.116;2022-10-16T06:06:17;12.50;99.90
15556;DHT22;7879;48.660;9.116;2022-10-16T06:08:45;12.50;99.90
15556;DHT22;7879;48.660;9.116;2022-10-16T06:11:21;12.50;99.90
15556;DHT22;7879;48.660;9.116;2022-10-16T06:13:52;12.60;99.90
15556;DHT22;7879;48.660;9.116;2022-10-16T06:16:19;12.60;99.90
15556;DHT22;7879;48.660;9.116;2022-10-16T06:18:46;12.60;99.90
15556;DHT22;7879;48.660;9.116;2022-10-16T06:21:19;12.60;99.90
15556;DHT22;7879;48.660;9.116;2022-10-16T06:23:46;12.60;99.90
15556;DHT22;7879;48.660;9.116;2022-10-16T06:26:15;12.60;99.90
15556;DHT22;7879;48.660;9.116;2022-10-16T06:28:42;12.60;99.90
15556;DHT22;7879;48.660;9.116;2022-10-16T06:31:10;12.60;99.90
15556;DHT22;7879;48.660;9.116;2022-10-16T06:33:38;12.70;99.90
15556;DHT22;7879;48.660;9.116;2022-10-16T06:36:16;12.70;99.90
15556;DHT22;7879;48.660;9.116;2022-10-16T06:38:43;12.70;99.90
15556;DHT22;7879;48.660;9.116;2022-10-16T06:41:15;12.80;99.90
15556;DHT22;7879;48.660;9.116;2022-10-16T06:43:43;12.80;99.90
15556;DHT22;7879;48.660;9.116;2022-10-16T06:46:12;12.80;99.90
15556;DHT22;7879;48.660;9.116;2022-10-16T06:48:39;12.90;99.90
15556;DHT22;7879;48.660;9.116;2022-10-16T06:51:09;12.90;99.90
15556;DHT22;7879;48.660;9.116;2022-10-16T06:53:48;12.90;99.90
15556;DHT22;7879;48.660;9.116;2022-10-16T06:56:28;12.90;99.90
15556;DHT22;7879;48.660;9.116;2022-10-16T06:58:57;12.90;99.90
15556;DHT22;7879;48.660;9.116;2022-10-16T07:01:24;13.00;99.90
15556;DHT22;7879;48.660;9.116;2022-10-16T07:03:51;13.00;99.90
15556;DHT22;7879;48.660;9.116;2022-10-16T07:06:21;13.00;99.90
15556;DHT22;7879;48.660;9.116;2022-10-16T07:08:49;13.00;99.90
15556;DHT22;7879;48.660;9.116;2022-10-16T07:11:19;13.10;99.90
15556;DHT22;7879;48.660;9.116;2022-10-16T07:13:47;13.10;99.90
15556;DHT22;7879;48.660;9.116;2022-10-16T07:16:28;13.10;99.90
15556;DHT22;7879;48.660;9.116;2022-10-16T07:18:57;13.20;99.90
15556;DHT22;7879;48.660;9.116;2022-10-16T07:21:31;13.20;99.90
15556;DHT22;7879;48.660;9.116;2022-10-16T07:24:01;13.20;99.90
15556;DHT22;7879;48.660;9.116;2022-10-16T07:26:34;13.20;99.90
15556;DHT22;7879;48.660;9.116;2022-10-16T07:29:01;13.30;99.90
15556;DHT22;7879;48.660;9.116;2022-10-16T07:31:28;13.30;99.90
15556;DHT22;7879;48.660;9.116;2022-10-16T07:33:54;13.30;99.90
15556;DHT22;7879;48.660;9.116;2022-10-16T07:36:21;13.40;99.90
15556;DHT22;7879;48.660;9.116;2022-10-16T07:38:48;13.40;99.90
15556;DHT22;7879;48.660;9.116;2022-10-16T07:41:19;13.40;99.90
15556;DHT22;7879;48.660;9.116;2022-10-16T07:43:47;13.40;99.90
15556;DHT22;7879;48.660;9.116;2022-10-16T07:46:14;13.50;99.90
15556;DHT22;7879;48.660;9.116;2022-10-16T07:48:40;13.50;99.90
15556;DHT22;7879;48.660;9.116;2022-10-16T07:51:08;13.50;99.90
15556;DHT22;7879;48.660;9.116;2022-10-16T07:53:35;13.60;99.90
15556;DHT22;7879;48.660;9.116;2022-10-16T07:56:04;13.50;99.90
15556;DHT22;7879;48.660;9.116;2022-10-16T07:58:33;13.70;99.90
15556;DHT22;7879;48.660;9.116;2022-10-16T08:01:04;13.80;99.90
15556;DHT22;7879;48.660;9.116;2022-10-16T08:03:31;13.80;99.90
15556;DHT22;7879;48.660;9.116;2022-10-16T08:05:59;13.80;99.90
15556;DHT22;7879;48.660;9.116;2022-10-16T08:08:27;13.80;99.90
15556;DHT22;7879;48.660;9.116;2022-10-16T08:10:54;13.90;99.90
15556;DHT22;7879;48.660;9.116;2022-10-16T08:13:20;13.90;99.90
15556;DHT22;7879;48.660;9.116;2022-10-16T08:15:47;13.90;99.90
15556;DHT22;7879;48.660;9.116;2022-10-16T08:18:15;14.00;99.90
15556;DHT22;7879;48.660;9.116;2022-10-16T08:20:42;14.00;99.90
15556;DHT22;7879;48.660;9.116;2022-10-16T08:23:11;14.10;99.90
15556;DHT22;7879;48.660;9.116;2022-10-16T08:25:40;14.20;99.90
15556;DHT22;7879;48.660;9.116;2022-10-16T08:28:09;14.30;99.90
15556;DHT22;7879;48.660;9.116;2022-10-16T08:30:36;14.30;99.90
15556;DHT22;7879;48.660;9.116;2022-10-16T08:33:03;14.40;99.90
15556;DHT22;7879;48.660;9.116;2022-10-16T08:35:30;14.40;99.90
15556;DHT22;7879;48.660;9.116;2022-10-16T08:37:57;14.50;99.90
15556;DHT22;7879;48.660;9.116;2022-10-16T08:40:35;14.60;99.90
15556;DHT22;7879;48.660;9.116;2022-10-16T08:48:48;14.70;99.90
15556;DHT22;7879;48.660;9.116;2022-10-16T08:54:04;14.90;99.90
15556;DHT22;7879;48.660;9.116;2022-10-16T08:56:31;14.90;99.90
15556;DHT22;7879;48.660;9.116;2022-10-16T08:59:00;14.90;99.90
15556;DHT22;7879;48.660;9.116;2022-10-16T09:01:38;15.00;99.90
15556;DHT22;7879;48.660;9.116;2022-10-16T09:06:47;15.20;99.90
15556;DHT22;7879;48.660;9.116;2022-10-16T09:12:30;15.50;99.90
15556;DHT22;7879;48.660;9.116;2022-10-16T09:15:24;15.40;99.90
15556;DHT22;7879;48.660;9.116;2022-10-16T09:23:15;15.70;99.90
15556;DHT22;7879;48.660;9.116;2022-10-16T09:25:47;15.80;99.90
15556;DHT22;7879;48.660;9.116;2022-10-16T09:28:15;15.90;99.90
15556;DHT22;7879;48.660;9.116;2022-10-16T09:30:42;16.10;99.90
15556;DHT22;7879;48.660;9.116;2022-10-16T09:33:11;16.30;99.90
15556;DHT22;7879;48.660;9.116;2022-10-16T09:35:43;16.70;99.90
15556;DHT22;7879;48.660;9.116;2022-10-16T09:38:33;17.20;99.90
15556;DHT22;7879;48.660;9.116;2022-10-16T09:41:02;17.50;99.90
15556;DHT22;7879;48.660;9.116;2022-10-16T09:43:46;17.70;99.90
15556;DHT22;7879;48.660;9.116;2022-10-16T09:46:32;18.10;99.90
15556;DHT22;7879;48.660;9.116;2022-10-16T09:49:23;18.40;99.90
15556;DHT22;7879;48.660;9.116;2022-10-16T09:51:51;18.70;99.90
15556;DHT22;7879;48.660;9.116;2022-10-16T09:54:20;18.80;99.90
15556;DHT22;7879;48.660;9.116;2022-10-16T09:56:48;19.00;99.90
15556;DHT22;7879;48.660;9.116;2022-10-16T09:59:22;19.50;99.90
15556;DHT22;7879;48.660;9.116;2022-10-16T10:01:54;19.90;99.90
15556;DHT22;7879;48.660;9.116;2022-10-16T10:04:23;20.10;99.90
15556;DHT22;7879;48.660;9.116;2022-10-16T10:06:54;20.20;99.90
15556;DHT22;7879;48.660;9.116;2022-10-16T10:09:26;19.90;99.90
15556;DHT22;7879;48.660;9.116;2022-10-16T10:12:02;19.70;99.90
15556;DHT22;7879;48.660;9.116;2022-10-16T10:20:01;19.50;99.90
15556;DHT22;7879;48.660;9.116;2022-10-16T10:22:41;19.90;99.90
15556;DHT22;7879;48.660;9.116;2022-10-16T10:30:33;20.80;99.90
15556;DHT22;7879;48.660;9.116;2022-10-16T10:33:28;20.60;99.90
15556;DHT22;7879;48.660;9.116;2022-10-16T10:36:29;20.50;99.90
15556;DHT22;7879;48.660;9.116;2022-10-16T10:39:33;20.50;99.90
15556;DHT22;7879;48.660;9.116;2022-10-16T10:47:40;21.20;99.90
15556;DHT22;7879;48.660;9.116;2022-10-16T10:53:18;21.40;99.90
15556;DHT22;7879;48.660;9.116;2022-10-16T11:05:24;22.30;99.90
15556;DHT22;7879;48.660;9.116;2022-10-16T11:07:28;22.20;99.90
15556;DHT22;7879;48.660;9.116;2022-10-16T11:10:03;22.40;99.90
15556;DHT22;7879;48.660;9.116;2022-10-16T11:12:42;22.60;99.90
15556;DHT22;7879;48.660;9.116;2022-10-16T11:15:25;22.60;99.90
15556;DHT22;7879;48.660;9.116;2022-10-16T11:20:37;21.90;99.90
15556;DHT22;7879;48.660;9.116;2022-10-16T11:23:37;21.80;99.90
15556;DHT22;7879;48.660;9.116;2022-10-16T11:26:11;21.70;99.90
15556;DHT22;7879;48.660;9.116;2022-10-16T11:28:49;21.60;99.90
15556;DHT22;7879;48.660;9.116;2022-10-16T11:31:38;21.70;99.90
15556;DHT22;7879;48.660;9.116;2022-10-16T11:36:43;21.90;99.90
15556;DHT22;7879;48.660;9.116;2022-10-16T11:42:03;22.10;99.90
15556;DHT22;7879;48.660;9.116;2022-10-16T11:45:07;22.20;99.90
15556;DHT22;7879;48.660;9.116;2022-10-16T11:47:45;22.30;99.90
15556;DHT22;7879;48.660;9.116;2022-10-16T11:50:36;22.10;99.90
15556;DHT22;7879;48.660;9.116;2022-10-16T11:55:44;21.90;99.90
15556;DHT22;7879;48.660;9.116;2022-10-16T12:03:44;21.90;99.90
15556;DHT22;7879;48.660;9.116;2022-10-16T12:06:34;21.90;99.90
15556;DHT22;7879;48.660;9.116;2022-10-16T12:09:02;21.90;99.90
15556;DHT22;7879;48.660;9.116;2022-10-16T12:11:35;21.70;99.90
15556;DHT22;7879;48.660;9.116;2022-10-16T12:17:01;21.60;99.90
15556;DHT22;7879;48.660;9.116;2022-10-16T12:19:28;21.60;99.90
15556;DHT22;7879;48.660;9.116;2022-10-16T12:22:00;21.70;99.90
15556;DHT22;7879;48.660;9.116;2022-10-16T12:24:39;21.60;99.90
15556;DHT22;7879;48.660;9.116;2022-10-16T12:27:27;21.60;99.90
15556;DHT22;7879;48.660;9.116;2022-10-16T12:30:01;21.60;99.90
15556;DHT22;7879;48.660;9.116;2022-10-16T12:32:36;21.50;99.90
15556;DHT22;7879;48.660;9.116;2022-10-16T12:35:21;21.50;99.90
15556;DHT22;7879;48.660;9.116;2022-10-16T12:37:50;21.50;99.90
15556;DHT22;7879;48.660;9.116;2022-10-16T12:40:29;21.40;99.90
15556;DHT22;7879;48.660;9.116;2022-10-16T12:42:57;21.40;99.90
15556;DHT22;7879;48.660;9.116;2022-10-16T12:45:29;21.50;99.90
15556;DHT22;7879;48.660;9.116;2022-10-16T12:48:01;21.50;99.90
15556;DHT22;7879;48.660;9.116;2022-10-16T12:50:32;21.50;99.90
15556;DHT22;7879;48.660;9.116;2022-10-16T12:53:02;21.50;99.90
15556;DHT22;7879;48.660;9.116;2022-10-16T12:55:35;21.50;99.90
15556;DHT22;7879;48.660;9.116;2022-10-16T13:01:51;21.50;99.90
15556;DHT22;7879;48.660;9.116;2022-10-16T13:06:39;21.40;99.90
15556;DHT22;7879;48.660;9.116;2022-10-16T13:09:25;21.40;99.90
15556;DHT22;7879;48.660;9.116;2022-10-16T13:23:36;21.50;99.90
15556;DHT22;7879;48.660;9.116;2022-10-16T13:26:13;21.50;99.90
15556;DHT22;7879;48.660;9.116;2022-10-16T13:28:43;21.50;99.90
15556;DHT22;7879;48.660;9.116;2022-10-16T13:31:22;21.50;99.90
15556;DHT22;7879;48.660;9.116;2022-10-16T13:33:53;21.50;99.90
15556;DHT22;7879;48.660;9.116;2022-10-16T13:36:27;21.50;99.90
15556;DHT22;7879;48.660;9.116;2022-10-16T13:41:34;21.50;99.90
15556;DHT22;7879;48.660;9.116;2022-10-16T13:44:00;21.60;99.90
15556;DHT22;7879;48.660;9.116;2022-10-16T13:46:28;21.50;99.90
15556;DHT22;7879;48.660;9.116;2022-10-16T13:49:10;21.40;99.90
15556;DHT22;7879;48.660;9.116;2022-10-16T13:51:38;21.50;99.90
15556;DHT22;7879;48.660;9.116;2022-10-16T13:54:05;21.40;99.90
15556;DHT22;7879;48.660;9.116;2022-10-16T13:56:32;21.40;99.90
15556;DHT22;7879;48.660;9.116;2022-10-16T13:59:04;21.40;99.90
15556;DHT22;7879;48.660;9.116;2022-10-16T14:01:40;21.40;99.90
15556;DHT22;7879;48.660;9.116;2022-10-16T14:04:10;21.30;99.90
15556;DHT22;7879;48.660;9.116;2022-10-16T14:06:43;21.40;99.90
15556;DHT22;7879;48.660;9.116;2022-10-16T14:14:24;21.40;99.90
15556;DHT22;7879;48.660;9.116;2022-10-16T14:16:51;21.40;99.90
15556;DHT22;7879;48.660;9.116;2022-10-16T14:19:27;21.40;99.90
15556;DHT22;7879;48.660;9.116;2022-10-16T14:21:54;21.40;99.90
15556;DHT22;7879;48.660;9.116;2022-10-16T14:24:26;21.40;99.90
15556;DHT22;7879;48.660;9.116;2022-10-16T14:26:54;21.40;99.90
15556;DHT22;7879;48.660;9.116;2022-10-16T14:29:25;21.40;99.90
15556;DHT22;7879;48.660;9.116;2022-10-16T14:32:02;21.30;99.90
15556;DHT22;7879;48.660;9.116;2022-10-16T14:34:37;21.30;99.90
15556;DHT22;7879;48.660;9.116;2022-10-16T14:37:14;21.40;99.90
15556;DHT22;7879;48.660;9.116;2022-10-16T14:39:50;21.30;99.90
15556;DHT22;7879;48.660;9.116;2022-10-16T14:42:18;21.30;99.90
15556;DHT22;7879;48.660;9.116;2022-10-16T14:44:46;21.40;99.90
15556;DHT22;7879;48.660;9.116;2022-10-16T14:47:16;21.40;99.90
15556;DHT22;7879;48.660;9.116;2022-10-16T14:49:48;21.40;99.90
15556;DHT22;7879;48.660;9.116;2022-10-16T14:52:15;21.40;99.90
15556;DHT22;7879;48.660;9.116;2022-10-16T14:54:42;21.40;99.90
15556;DHT22;7879;48.660;9.116;2022-10-16T14:57:19;21.40;99.90
15556;DHT22;7879;48.660;9.116;2022-10-16T14:59:47;21.30;99.90
15556;DHT22;7879;48.660;9.116;2022-10-16T15:04:44;21.20;99.90
15556;DHT22;7879;48.660;9.116;2022-10-16T15:07:11;21.20;99.90
15556;DHT22;7879;48.660;9.116;2022-10-16T15:09:38;21.20;99.90
15556;DHT22;7879;48.660;9.116;2022-10-16T15:12:05;21.20;99.90
15556;DHT22;7879;48.660;9.116;2022-10-16T15:14:32;21.20;99.90
15556;DHT22;7879;48.660;9.116;2022-10-16T15:16:58;21.10;99.90
15556;DHT22;7879;48.660;9.116;2022-10-16T15:19:25;21.10;99.90
15556;DHT22;7879;48.660;9.116;2022-10-16T15:21:52;21.10;99.90
15556;DHT22;7879;48.660;9.116;2022-10-16T15:24:18;21.10;99.90
15556;DHT22;7879;48.660;9.116;2022-10-16T15:26:47;21.10;99.90
15556;DHT22;7879;48.660;9.116;2022-10-16T15:29:15;21.10;99.90
15556;DHT22;7879;48.660;9.116;2022-10-16T15:31:42;21.00;99.90
15556;DHT22;7879;48.660;9.116;2022-10-16T15:34:09;21.00;99.90
15556;DHT22;7879;48.660;9.116;2022-10-16T15:36:37;21.00;99.90
15556;DHT22;7879;48.660;9.116;2022-10-16T15:39:08;21.00;99.90
15556;DHT22;7879;48.660;9.116;2022-10-16T15:41:37;20.90;99.90
15556;DHT22;7879;48.660;9.116;2022-10-16T15:44:04;20.90;99.90
15556;DHT22;7879;48.660;9.116;2022-10-16T15:46:30;20.90;99.90
15556;DHT22;7879;48.660;9.116;2022-10-16T15:49:00;20.80;99.90
15556;DHT22;7879;48.660;9.116;2022-10-16T15:51:27;20.80;99.90
15556;DHT22;7879;48.660;9.116;2022-10-16T15:53:56;20.70;99.90
15556;DHT22;7879;48.660;9.116;2022-10-16T15:56:26;20.70;99.90
15556;DHT22;7879;48.660;9.116;2022-10-16T15:58:52;20.60;99.90
15556;DHT22;7879;48.660;9.116;2022-10-16T16:01:20;20.60;99.90
15556;DHT22;7879;48.660;9.116;2022-10-16T16:03:52;20.50;99.90
15556;DHT22;7879;48.660;9.116;2022-10-16T16:06:20;20.40;99.90
15556;DHT22;7879;48.660;9.116;2022-10-16T16:08:46;20.40;99.90
15556;DHT22;7879;48.660;9.116;2022-10-16T16:11:14;20.30;99.90
15556;DHT22;7879;48.660;9.116;2022-10-16T16:13:41;20.20;99.90
15556;DHT22;7879;48.660;9.116;2022-10-16T16:16:13;20.20;99.90
15556;DHT22;7879;48.660;9.116;2022-10-16T16:18:41;20.10;99.90
15556;DHT22;7879;48.660;9.116;2022-10-16T16:21:10;20.10;99.90
15556;DHT22;7879;48.660;9.116;2022-10-16T16:23:36;20.00;99.90
15556;DHT22;7879;48.660;9.116;2022-10-16T16:26:09;19.90;99.90
15556;DHT22;7879;48.660;9.116;2022-10-16T16:28:38;19.80;99.90
15556;DHT22;7879;48.660;9.116;2022-10-16T16:31:05;19.80;99.90
15556;DHT22;7879;48.660;9.116;2022-10-16T16:33:32;19.70;99.90
15556;DHT22;7879;48.660;9.116;2022-10-16T16:36:01;19.70;99.90
15556;DHT22;7879;48.660;9.116;2022-10-16T16:38:29;19.60;99.90
15556;DHT22;7879;48.660;9.116;2022-10-16T16:40:56;19.50;99.90
15556;DHT22;7879;48.660;9.116;2022-10-16T16:43:26;19.40;99.90
15556;DHT22;7879;48.660;9.116;2022-10-16T16:45:54;19.40;99.90
15556;DHT22;7879;48.660;9.116;2022-10-16T16:48:21;19.30;99.90
15556;DHT22;7879;48.660;9.116;2022-10-16T16:50:48;19.20;99.90
15556;DHT22;7879;48.660;9.116;2022-10-16T16:53:15;19.10;99.90
15556;DHT22;7879;48.660;9.116;2022-10-16T16:55:41;19.10;99.90
15556;DHT22;7879;48.660;9.116;2022-10-16T16:58:08;19.00;99.90
15556;DHT22;7879;48.660;9.116;2022-10-16T17:00:35;18.80;99.90
15556;DHT22;7879;48.660;9.116;2022-10-16T17:03:02;18.70;99.90
15556;DHT22;7879;48.660;9.116;2022-10-16T17:05:28;18.70;99.90
15556;DHT22;7879;48.660;9.116;2022-10-16T17:07:56;18.60;99.90
15556;DHT22;7879;48.660;9.116;2022-10-16T17:10:26;18.60;99.90
15556;DHT22;7879;48.660;9.116;2022-10-16T17:13:00;18.50;99.90
15556;DHT22;7879;48.660;9.116;2022-10-16T17:15:27;18.40;99.90
15556;DHT22;7879;48.660;9.116;2022-10-16T17:17:56;18.30;99.90
15556;DHT22;7879;48.660;9.116;2022-10-16T17:20:24;18.40;99.90
15556;DHT22;7879;48.660;9.116;2022-10-16T17:22:53;18.10;99.90
15556;DHT22;7879;48.660;9.116;2022-10-16T17:25:23;18.10;99.90
15556;DHT22;7879;48.660;9.116;2022-10-16T17:27:51;18.10;99.90
15556;DHT22;7879;48.660;9.116;2022-10-16T17:30:19;18.10;99.90
15556;DHT22;7879;48.660;9.116;2022-10-16T17:32:46;18.00;99.90
15556;DHT22;7879;48.660;9.116;2022-10-16T17:35:13;18.00;99.90
15556;DHT22;7879;48.660;9.116;2022-10-16T17:37:42;18.00;99.90
15556;DHT22;7879;48.660;9.116;2022-10-16T17:40:10;17.90;99.90
15556;DHT22;7879;48.660;9.116;2022-10-16T17:42:43;17.80;99.90
15556;DHT22;7879;48.660;9.116;2022-10-16T17:45:10;17.80;99.90
15556;DHT22;7879;48.660;9.116;2022-10-16T17:47:37;17.70;99.90
15556;DHT22;7879;48.660;9.116;2022-10-16T17:50:04;17.60;99.90
15556;DHT22;7879;48.660;9.116;2022-10-16T17:52:31;17.50;99.90
15556;DHT22;7879;48.660;9.116;2022-10-16T17:54:58;17.40;99.90